KLUL/LUL METAR and TAF weather

Enter ICAO airport designator
Station Type Date Time Source
KLUL METAR 2021/09/28 04:35 UTC NOAA

KLUL 280435Z AUTO 16004KT 10SM BKN085 22/19 A3004 RMK A02 T02250192


Station Type Date Time Source
KLUL Decoded METAR 2021/09/28 04:35 UTC NOAA

Station name not available
Sep 28, 2021 - 12:35 AM EDT / 2021.09.28 0435 UTC
Wind: from the SSE (160 degrees) at 5 MPH (4 KT):0
Visibility: 10 mile(s):0
Sky conditions: mostly cloudy
Temperature: 72.5 F (22.5 C)
Dew Point: 66.6 F (19.2 C)
Relative Humidity: 81%
Pressure (altimeter): 30.04 in. Hg (1017 hPa)
ob: KLUL 280435Z AUTO 16004KT 10SM BKN085 22/19 A3004 RMK A02 T02250192
cycle: 4

Station Type Date Time Source
KLUL TAF UTC NOAA

Error!

Example: see airport list